Data for 05/20/2010

Time Sea-Level Adjusted Pressure Absolute Pressure Temperature Relative Humidity Dew Point   
(mb) (inHg) (mb) (inHg) (C) (F) (%) (C) (F)
00:05 1014 29.94 843 24.89 9.9 49.8 68 4.3 39.8
00:10 1014 29.94 843 24.89 10 49.9 68 4.4 39.8
00:15 1014 29.94 843 24.89 10 50 66 4 39.3
00:20 1014 29.94 843 24.89 9.9 49.9 67 4.2 39.6
00:25 1014 29.94 843 24.89 9.7 49.5 68 4.2 39.6
00:30 1014 29.94 843 24.89 9.6 49.3 68 4.1 39.4
00:35 1014 29.94 843 24.89 9.8 49.6 66 3.8 38.8
00:40 1014 29.94 843 24.89 9.9 49.8 66 3.8 38.9
00:45 1014 29.94 843 24.89 9.9 49.8 66 3.9 39.1
00:50 1014 29.94 843 24.89 9.9 49.7 69 4.5 40.2
00:55 1014 29.94 843 24.89 9.7 49.5 70 4.4 40
01:00 1014 29.94 843 24.89 9.6 49.3 70 4.5 40.1
01:05 1014 29.94 843 24.89 9.6 49.2 69 4.2 39.6
01:10 1014 29.94 843 24.89 9.8 49.6 67 4 39.3
01:15 1013 29.91 843 24.89 10 49.9 66 3.9 39.1
01:20 1013 29.91 843 24.89 10.2 50.4 65 3.9 38.9
01:25 1013 29.91 843 24.89 10.2 50.4 64 3.8 38.9
01:30 1013 29.91 842 24.86 10.2 50.3 65 4 39.2
01:35 1013 29.91 842 24.86 10.1 50.2 65 3.9 39
01:40 1013 29.91 842 24.86 10.1 50.2 62 3.3 37.9
01:45 1013 29.91 842 24.86 10.3 50.5 61 3.1 37.5
01:50 1013 29.91 842 24.86 10.2 50.4 63 3.5 38.3
01:55 1013 29.91 842 24.86 10.1 50.1 62 3.2 37.7
02:00 1013 29.91 842 24.86 10.2 50.3 63 3.5 38.4
02:05 1013 29.91 842 24.86 10 50 64 3.5 38.3
02:10 1013 29.91 842 24.86 10.2 50.3 63 3.4 38.1
02:15 1013 29.91 842 24.86 10.2 50.4 62 3.4 38.1
02:20 1013 29.91 842 24.86 10.2 50.4 62 3.4 38.1
02:25 1013 29.91 842 24.86 10 50.1 63 3.2 37.8
02:30 1013 29.91 842 24.86 10.2 50.3 62 3.2 37.7
02:35 1013 29.91 842 24.86 10 50 62 3.1 37.5
02:40 1013 29.91 842 24.86 10.1 50.1 62 3.2 37.7
02:45 1013 29.91 842 24.86 10.1 50.2 61 2.9 37.2
02:50 1013 29.91 842 24.86 10.2 50.3 61 3.1 37.6
02:55 1013 29.91 842 24.86 9.9 49.8 62 3 37.4
03:00 1013 29.91 842 24.86 9.8 49.6 62 2.8 37.1
03:05 1013 29.91 842 24.86 9.9 49.9 61 2.8 37
03:10 1013 29.91 842 24.86 9.8 49.6 62 2.8 37.1
03:15 1012 29.88 842 24.86 9.5 49.2 63 2.9 37.3
03:20 1012 29.88 842 24.86 9.3 48.7 62 2.5 36.5
03:25 1012 29.88 842 24.86 9.2 48.6 62 2.4 36.3
03:30 1012 29.88 842 24.86 9.3 48.8 62 2.4 36.3
03:35 1012 29.88 842 24.86 9.2 48.6 62 2.5 36.4
03:40 1012 29.88 841 24.83 9.2 48.5 62 2.2 36
03:45 1012 29.88 841 24.83 9.6 49.2 60 2.3 36.1
03:50 1012 29.88 841 24.83 9.7 49.4 60 2.4 36.3
03:55 1012 29.88 841 24.83 9.5 49.1 60 2.3 36.1
04:00 1012 29.88 841 24.83 9.5 49 61 2.3 36.2
04:05 1012 29.88 841 24.83 9.4 49 60 2.2 35.9
04:10 1012 29.88 841 24.83 9.4 48.8 60 2.1 35.8
04:15 1012 29.88 841 24.83 9.4 48.9 61 2.2 36
04:20 1012 29.88 841 24.83 9.3 48.7 60 1.9 35.4
04:25 1012 29.88 841 24.83 9.3 48.7 59 1.8 35.3
04:30 1012 29.88 841 24.83 9.5 49.1 58 1.8 35.2
04:35 1012 29.88 841 24.83 9.5 49.1 58 1.8 35.2
04:40 1012 29.88 841 24.83 9.4 48.9 59 1.7 35.1
04:45 1012 29.88 841 24.83 9.4 48.8 59 1.7 35.1
04:50 1012 29.88 841 24.83 9.1 48.5 59 1.6 34.9
04:55 1012 29.88 841 24.83 9.2 48.6 59 1.6 34.9
05:00 1012 29.88 841 24.83 9.2 48.5 59 1.7 35
05:05 1012 29.88 841 24.83 9 48.2 60 1.6 34.9
05:10 1012 29.88 841 24.83 8.9 47.9 60 1.6 35
05:15 1012 29.88 841 24.83 8.6 47.5 61 1.5 34.7
05:20 1012 29.88 841 24.83 8.6 47.4 60 1.3 34.3
05:25 1012 29.88 841 24.83 8.5 47.3 60 1.3 34.3
05:30 1012 29.88 841 24.83 8.4 47.1 61 1.3 34.4
05:35 1012 29.88 841 24.83 7.9 46.3 62 1.2 34.1
05:40 1012 29.88 841 24.83 7.6 45.8 63 1.1 34
05:45 1012 29.88 841 24.83 7.5 45.4 63 0.9 33.7
05:50 1012 29.88 841 24.83 7.8 46.1 61 0.8 33.4
05:55 1011 29.85 841 24.83 8.3 46.9 60 1 33.7
06:00 1012 29.88 841 24.83 8.5 47.2 59 1 33.7
06:05 1011 29.85 841 24.83 8.5 47.3 59 1 33.8
06:10 1011 29.85 840 24.81 8.4 47.1 60 1 33.9
06:15 1011 29.85 841 24.83 8.3 47 59 0.9 33.6
06:20 1011 29.85 840 24.81 8.6 47.4 58 0.8 33.4
06:25 1011 29.85 840 24.81 8.6 47.4 58 0.8 33.5
06:30 1011 29.85 840 24.81 8.8 47.8 57 0.8 33.4
06:35 1011 29.85 840 24.81 8.6 47.5 58 0.8 33.5
06:40 1011 29.85 841 24.83 8.9 48.1 57 0.9 33.6
06:45 1011 29.85 841 24.83 9.1 48.3 57 1 33.8
06:50 1011 29.85 841 24.83 9.3 48.8 55 0.8 33.4
06:55 1011 29.85 841 24.83 9.6 49.2 54 0.8 33.4
07:00 1011 29.85 841 24.83 9.6 49.4 55 1 33.8
07:05 1011 29.85 841 24.83 9.6 49.3 56 1.3 34.3
07:10 1011 29.85 841 24.83 9.6 49.3 56 1.3 34.3
07:15 1011 29.85 841 24.83 9.9 49.8 54 1.1 33.9
07:20 1011 29.85 840 24.81 10.6 51.1 52 1.2 34.2
07:25 1011 29.85 840 24.81 11 51.9 51 1.4 34.5
07:30 1011 29.85 840 24.81 11.2 52.2 51 1.6 34.9
07:35 1011 29.85 840 24.81 11.5 52.7 49 1.2 34.2
07:40 1011 29.85 840 24.81 11.8 53.2 49 1.4 34.6
07:45 1011 29.85 840 24.81 12 53.6 48 1.5 34.8
07:50 1011 29.85 840 24.81 11.8 53.3 51 2.1 35.8
07:55 1011 29.85 840 24.81 11.6 52.9 51 1.9 35.4
08:00 1011 29.85 840 24.81 11.7 53.1 51 2 35.6
08:05 1011 29.85 840 24.81 11.9 53.3 50 1.7 35.1
08:10 1011 29.85 840 24.81 12 53.7 48 1.5 34.8
08:15 1011 29.85 840 24.81 12.2 53.9 48 1.5 34.7
08:20 1011 29.85 840 24.81 12.4 54.2 47 1.4 34.5
08:25 1011 29.85 840 24.81 12.6 54.7 45 1 33.8
08:30 1011 29.85 840 24.81 12.7 54.8 45 1.2 34.1
08:35 1011 29.85 840 24.81 12.9 55.3 45 1.4 34.5
08:40 1011 29.85 840 24.81 13.1 55.5 46 1.8 35.2
08:45 1011 29.85 840 24.81 13.1 55.6 45 1.5 34.6
08:50 1011 29.85 840 24.81 13.3 55.9 44 1.3 34.4
08:55 1011 29.85 840 24.81 13.3 56 46 1.9 35.4
09:00 1011 29.85 840 24.81 13.3 55.9 45 1.7 35
09:05 1011 29.85 840 24.81 13.3 56 46 1.9 35.4
09:10 1011 29.85 840 24.81 13.4 56.2 48 2.6 36.7
09:15 1011 29.85 840 24.81 13.6 56.5 44 1.8 35.2
09:20 1011 29.85 840 24.81 13.9 57.1 44 2 35.6
09:25 1011 29.85 840 24.81 14.1 57.3 43 1.8 35.3
09:30 1011 29.85 841 24.83 14.1 57.4 44 2.1 35.9
09:35 1012 29.88 841 24.83 14 57.2 48 3.3 38
09:40 1012 29.88 841 24.83 13 55.4 57 4.9 40.7
09:45 1012 29.88 841 24.83 11.7 53.1 62 4.7 40.5
09:50 1012 29.88 842 24.86 10.9 51.7 62 4 39.2
09:55 1013 29.91 842 24.86 10.4 50.7 63 3.7 38.6
10:00 1013 29.91 843 24.89 8.8 47.8 72 4.1 39.4
10:05 1014 29.94 843 24.89 7.5 45.5 80 4.3 39.7
10:10 1014 29.94 843 24.89 6.5 43.7 85 4.2 39.5
10:15 1014 29.94 843 24.89 6 42.8 87 4 39.2
10:20 1014 29.94 843 24.89 5.6 42.2 87 3.6 38.6
10:25 1014 29.94 844 24.92 5 40.9 89 3.3 38
10:30 1014 29.94 844 24.92 4.5 40.1 91 3.2 37.7
10:35 1015 29.97 844 24.92 4.5 40 92 3.2 37.8
10:40 1015 29.97 844 24.92 4.4 39.9 92 3.2 37.7
10:45 1015 29.97 844 24.92 4.5 40.1 91 3.2 37.7
10:50 1015 29.97 844 24.92 4.6 40.3 90 3 37.5
10:55 1015 29.97 844 24.92 4.6 40.4 90 3.1 37.6
11:00 1015 29.97 844 24.92 4.7 40.5 89 3.1 37.6
11:05 1015 29.97 844 24.92 4.8 40.6 89 3.1 37.6
11:10 1015 29.97 844 24.92 4.8 40.6 89 3.1 37.6
11:15 1015 29.97 844 24.92 4.7 40.5 90 3.2 37.8
11:20 1015 29.97 844 24.92 4.8 40.6 90 3.4 38
11:25 1015 29.97 845 24.95 4.8 40.6 90 3.2 37.8
11:30 1016 30 845 24.95 4.7 40.5 90 3.2 37.7
11:35 1016 30 845 24.95 4.8 40.6 90 3.2 37.8
11:40 1016 30 845 24.95 4.8 40.7 91 3.4 38.2
11:45 1016 30 845 24.95 5 40.9 89 3.3 38
11:50 1016 30 845 24.95 5.1 41.1 88 3.3 37.9
11:55 1016 30 845 24.95 5.3 41.6 86 3.2 37.8
12:00 1016 30 845 24.95 5.5 41.9 88 3.7 38.6
12:05 1016 30 845 24.95 5.7 42.3 87 3.7 38.7
12:10 1016 30 845 24.95 5.7 42.3 85 3.4 38.1
12:15 1016 30 845 24.95 5.6 42.1 86 3.4 38.1
12:20 1016 30 845 24.95 5.5 42 86 3.3 38
12:25 1016 30 845 24.95 5.4 41.8 85 3.2 37.7
12:30 1016 30 845 24.95 5.3 41.5 86 3.2 37.7
12:35 1016 30 845 24.95 5.3 41.5 85 2.9 37.3
12:40 1016 30 845 24.95 5.2 41.3 87 3.1 37.6
12:45 1016 30 845 24.95 5.2 41.4 86 3.1 37.7
12:50 1016 30 845 24.95 5.5 41.9 83 2.8 37.1
12:55 1016 30 845 24.95 5.6 42.1 85 3.3 38
13:00 1016 30 845 24.95 5.9 42.7 84 3.4 38.1
13:05 1016 30 845 24.95 5.7 42.3 85 3.4 38.2
13:10 1016 30 845 24.95 5.7 42.3 85 3.3 38
13:15 1015 29.97 845 24.95 5.8 42.5 84 3.4 38.2
13:20 1015 29.97 845 24.95 5.8 42.4 82 3 37.3
13:25 1015 29.97 844 24.92 6 42.8 85 3.6 38.5
13:30 1015 29.97 844 24.92 6.5 43.7 84 3.9 39.1
13:35 1015 29.97 844 24.92 7 44.7 80 3.8 38.9
13:40 1015 29.97 844 24.92 6.8 44.2 81 3.7 38.7
13:45 1015 29.97 844 24.92 6.5 43.8 80 3.4 38.1
13:50 1015 29.97 844 24.92 6.4 43.5 82 3.6 38.4
13:55 1015 29.97 845 24.95 6.4 43.5 81 3.4 38
14:00 1015 29.97 845 24.95 6.1 43 78 2.6 36.6
14:05 1015 29.97 845 24.95 5.9 42.6 79 2.5 36.6
14:10 1016 30 845 24.95 5.7 42.2 79 2.3 36.1
14:15 1016 30 845 24.95 5.2 41.4 83 2.6 36.7
14:20 1016 30 845 24.95 5.1 41.2 82 2.2 35.9
14:25 1016 30 845 24.95 4.9 40.8 84 2.4 36.4
14:30 1016 30 845 24.95 4.8 40.6 82 1.9 35.5
14:35 1016 30 845 24.95 4.2 39.6 84 1.8 35.3
14:40 1016 30 845 24.95 3.9 39 86 1.8 35.2
14:45 1016 30 845 24.95 3.9 39 86 1.7 35.1
14:50 1016 30 845 24.95 4 39.2 86 1.8 35.3
14:55 1016 30 845 24.95 3.8 38.9 87 1.8 35.3
15:00 1016 30 845 24.95 3.5 38.3 88 1.8 35.2
15:05 1016 30 845 24.95 3.4 38.1 90 1.8 35.3
15:10 1016 30 846 24.98 3.2 37.7 90 1.7 35
15:15 1016 30 845 24.95 3.2 37.8 91 1.9 35.4
15:20 1016 30 845 24.95 3.3 38 89 1.6 34.9
15:25 1016 30 845 24.95 3.6 38.5 86 1.5 34.7
15:30 1016 30 845 24.95 4.1 39.4 86 1.9 35.5
15:35 1016 30 845 24.95 4.8 40.6 84 2.3 36.2
15:40 1016 30 845 24.95 4.8 40.6 80 1.6 34.9
15:45 1016 30 845 24.95 5 41 80 1.9 35.4
15:50 1016 30 845 24.95 5.3 41.5 77 1.5 34.8
15:55 1016 30 845 24.95 5.6 42.2 77 1.9 35.4
16:00 1015 29.97 845 24.95 5.6 42.1 77 1.9 35.4
16:05 1015 29.97 844 24.92 5.9 42.7 79 2.6 36.7
16:10 1015 29.97 844 24.92 6 42.8 79 2.6 36.7
16:15 1015 29.97 844 24.92 6.3 43.3 79 2.9 37.3
16:20 1015 29.97 844 24.92 7 44.6 76 3 37.5
16:25 1015 29.97 844 24.92 7.4 45.2 71 2.4 36.4
16:30 1015 29.97 844 24.92 8.3 46.9 67 2.5 36.5
16:35 1015 29.97 844 24.92 8.7 47.6 71 3.7 38.7
16:40 1015 29.97 844 24.92 8.7 47.7 68 3.1 37.7
16:45 1015 29.97 844 24.92 8.7 47.7 68 3.2 37.7
16:50 1015 29.97 844 24.92 8.7 47.7 69 3.4 38.1
16:55 1015 29.97 844 24.92 9.8 49.6 62 2.9 37.3
17:00 1015 29.97 844 24.92 10.9 51.7 53 1.8 35.2
17:05 1015 29.97 844 24.92 11.3 52.3 53 2.1 35.9
17:10 1015 29.97 844 24.92 11.1 52 53 2 35.6
17:15 1014 29.94 844 24.92 10.9 51.7 48 0.4 32.8
17:20 1014 29.94 844 24.92 10.9 51.5 47 -0 32
17:25 1014 29.94 844 24.92 10.6 51 52 1.1 33.9
17:30 1014 29.94 844 24.92 11.3 52.3 49 1.1 33.9
17:35 1014 29.94 844 24.92 11.5 52.8 45 0.2 32.3
17:40 1014 29.94 844 24.92 10.6 51.1 49 0.4 32.7
17:45 1015 29.97 844 24.92 11 51.8 45 -0.4 31.3
17:50 1015 29.97 844 24.92 11.7 53 47 0.8 33.5
17:55 1015 29.97 844 24.92 11.3 52.4 50 1.3 34.3
18:00 1015 29.97 844 24.92 10.9 51.7 53 1.8 35.2
18:05 1014 29.94 844 24.92 10.7 51.3 53 1.6 34.9
18:10 1014 29.94 844 24.92 10.3 50.5 54 1.4 34.5
18:15 1014 29.94 844 24.92 9.8 49.7 58 2 35.7
18:20 1015 29.97 844 24.92 8.5 47.3 65 2.3 36.1
18:25 1015 29.97 844 24.92 7.6 45.7 70 2.4 36.4
18:30 1015 29.97 844 24.92 7 44.6 73 2.5 36.5
18:35 1015 29.97 844 24.92 6.7 44.1 74 2.4 36.4
18:40 1015 29.97 844 24.92 6.8 44.2 74 2.4 36.4
18:45 1015 29.97 844 24.92 6.9 44.3 73 2.3 36.1
18:50 1015 29.97 844 24.92 7.1 44.8 71 2.3 36.1
18:55 1015 29.97 844 24.92 7.2 45 70 2.2 36
19:00 1015 29.97 844 24.92 7.3 45.2 70 2.3 36.2
19:05 1015 29.97 844 24.92 6.8 44.3 72 2.1 35.8
19:10 1015 29.97 844 24.92 6.4 43.5 73 1.9 35.4
19:15 1015 29.97 844 24.92 6.3 43.4 76 2.4 36.4
19:20 1015 29.97 845 24.95 5.8 42.5 76 1.9 35.4
19:25 1015 29.97 845 24.95 5.8 42.4 78 2.3 36.1
19:30 1015 29.97 845 24.95 6 42.8 79 2.6 36.7
19:35 1015 29.97 845 24.95 5.9 42.7 77 2.2 36
19:40 1015 29.97 845 24.95 6 42.8 79 2.6 36.8
19:45 1015 29.97 845 24.95 6 42.9 79 2.7 36.8
19:50 1015 29.97 845 24.95 6 42.8 79 2.6 36.7
19:55 1016 30 845 24.95 6 42.8 77 2.3 36.2
20:00 1016 30 845 24.95 6 42.9 79 2.7 36.9
20:05 1015 29.97 845 24.95 6 42.8 79 2.7 36.9
20:10 1015 29.97 845 24.95 6 42.7 79 2.6 36.7
20:15 1015 29.97 845 24.95 6 42.8 80 2.8 37.1
20:20 1015 29.97 845 24.95 6 42.8 80 2.8 37.1
20:25 1015 29.97 845 24.95 6 42.8 81 2.9 37.3
20:30 1016 30 845 24.95 6.1 42.9 78 2.6 36.7
20:35 1016 30 845 24.95 6.1 43 79 2.7 36.9
20:40 1016 30 845 24.95 6.2 43.1 78 2.7 36.8
20:45 1016 30 845 24.95 6.2 43.2 81 3.1 37.6
20:50 1016 30 845 24.95 6.1 42.9 82 3.2 37.8
20:55 1016 30 845 24.95 5.9 42.7 83 3.2 37.8
21:00 1016 30 845 24.95 5.8 42.5 83 3.2 37.7
21:05 1016 30 845 24.95 5.8 42.5 80 2.6 36.7
21:10 1016 30 845 24.95 5.9 42.7 74 1.7 35.1
21:15 1016 30 845 24.95 6.1 42.9 72 1.5 34.6
21:20 1016 30 845 24.95 6.1 43 73 1.6 34.9
21:25 1016 30 845 24.95 6.1 42.9 73 1.5 34.8
21:30 1016 30 845 24.95 6 42.8 75 2 35.6
21:35 1016 30 845 24.95 6 42.8 75 2 35.6
21:40 1016 30 845 24.95 5.9 42.6 76 2 35.5
21:45 1016 30 845 24.95 5.8 42.5 76 1.9 35.3
21:50 1016 30 845 24.95 5.8 42.4 75 1.7 35
21:55 1016 30 845 24.95 5.8 42.5 73 1.4 34.5
22:00 1016 30 845 24.95 5.9 42.6 73 1.5 34.6
22:05 1016 30 845 24.95 6 42.8 71 1.2 34.1
22:10 1016 30 845 24.95 6.3 43.4 69 1.1 34
22:15 1016 30 846 24.98 6.2 43.2 75 2.2 36
22:20 1016 30 846 24.98 5.9 42.6 75 1.8 35.3
22:25 1017 30.03 846 24.98 5.9 42.6 75 1.8 35.3
22:30 1017 30.03 846 24.98 5.9 42.6 76 2 35.6
22:35 1017 30.03 846 24.98 5.9 42.7 76 2 35.6
22:40 1017 30.03 846 24.98 5.7 42.2 78 2.1 35.8
22:45 1017 30.03 846 24.98 5.1 41.2 80 1.9 35.5
22:50 1017 30.03 846 24.98 4.5 40.1 84 1.9 35.5
22:55 1017 30.03 846 24.98 4.2 39.6 84 1.7 35.1
23:00 1017 30.03 846 24.98 4 39.2 87 2 35.6
23:05 1017 30.03 846 24.98 4 39.1 87 2 35.6
23:10 1017 30.03 846 24.98 4 39.2 83 1.3 34.4
23:15 1017 30.03 846 24.98 3.6 38.6 85 1.4 34.4
23:20 1017 30.03 846 24.98 3.4 38.1 88 1.6 35
23:25 1017 30.03 846 24.98 3.3 38 89 1.6 35
23:30 1017 30.03 846 24.98 3.3 38 91 1.9 35.5
23:35 1017 30.03 846 24.98 3.3 37.9 91 2 35.6
23:40 1017 30.03 846 24.98 3.1 37.6 92 1.9 35.5
23:45 1017 30.03 846 24.98 3 37.5 91 1.7 35.1
23:50 1017 30.03 846 24.98 3.1 37.5 91 1.8 35.2
23:55 1017 30.03 846 24.98 3.1 37.6 92 1.9 35.4
24:00 1017 30.03 846 24.98 3.2 37.7 92 1.9 35.5